Time;durP1;ratioP1;P1;durP2;ratioP2;P2;SDS_P1;SDS_P2;PMS_P1;PMS_P2;Temp;Humidity;BMP_temperature;BMP_pressure;BME280_temperature;BME280_humidity;BME280_pressure;Samples;Min_cycle;Max_cycle;Signal;HPM_P1;HPM_P2
2023/03/25 00:01:07;;;;;;;5.70;1.42;;;;;;;10.94;73.78;98367.44;4954871;29;20125;-79
2023/03/25 00:03:41;;;;;;;5.25;1.50;;;;;;;10.96;73.84;98367.34;4953393;28;20144;-80
2023/03/25 00:06:09;;;;;;;5.07;1.17;;;;;;;10.96;73.85;98369.97;4953112;29;20484;-80
2023/03/25 00:08:36;;;;;;;2.47;1.10;;;;;;;10.97;73.97;98371.63;4954043;28;20055;-80
2023/03/25 00:11:05;;;;;;;3.83;1.25;;;;;;;10.94;73.88;98369.25;4946135;29;20144;-80
2023/03/25 00:13:32;;;;;;;1.95;1.02;;;;;;;10.92;74.00;98371.16;4933973;29;20059;-80
2023/03/25 00:16:00;;;;;;;3.05;1.10;;;;;;;10.89;73.98;98366.16;4934605;29;20063;-80
2023/03/25 00:18:32;;;;;;;4.85;1.13;;;;;;;10.84;74.00;98368.31;4935011;29;20106;-80
2023/03/25 00:21:01;;;;;;;2.95;1.02;;;;;;;10.79;73.70;98381.84;4934844;29;20111;-80
2023/03/25 00:23:29;;;;;;;2.72;0.70;;;;;;;10.76;74.03;98371.59;4935185;29;20078;-79
2023/03/25 00:25:59;;;;;;;2.75;1.00;;;;;;;10.72;74.04;98383.31;4934731;29;20059;-80
2023/03/25 00:28:33;;;;;;;2.63;0.82;;;;;;;10.66;72.61;98382.81;4934486;29;20503;-80
2023/03/25 00:31:01;;;;;;;1.50;0.85;;;;;;;10.67;74.51;98371.34;4933784;29;20059;-80
2023/03/25 00:33:29;;;;;;;1.73;0.70;;;;;;;10.64;74.65;98378.63;4934902;29;20190;-80
2023/03/25 00:35:58;;;;;;;1.80;0.70;;;;;;;10.64;74.62;98376.00;4934460;29;20060;-80
2023/03/25 00:38:32;;;;;;;2.05;0.98;;;;;;;10.62;74.68;98376.13;4934257;29;20431;-80
2023/03/25 00:41:07;;;;;;;4.10;1.00;;;;;;;10.59;72.65;98375.53;4917822;29;20153;-80
2023/03/25 00:43:34;;;;;;;2.88;0.90;;;;;;;10.60;74.54;98387.72;4934686;29;20471;-80
2023/03/25 00:46:01;;;;;;;4.38;0.98;;;;;;;10.57;74.26;98372.22;4934493;29;20430;-80
2023/03/25 00:48:27;;;;;;;6.28;1.48;;;;;;;10.55;74.64;98372.31;4934516;29;20059;-80
2023/03/25 00:50:53;;;;;;;3.05;1.10;;;;;;;10.56;74.67;98381.88;4934438;29;20055;-79
2023/03/25 00:53:20;;;;;;;3.33;1.13;;;;;;;10.54;74.92;98376.75;4934649;29;20079;-79
2023/03/25 00:55:46;;;;;;;5.25;1.52;;;;;;;10.52;74.96;98365.50;4934199;29;20111;-80
2023/03/25 00:58:13;;;;;;;5.78;1.35;;;;;;;10.52;74.83;98370.78;4933914;29;20077;-80
2023/03/25 01:00:40;;;;;;;4.15;1.40;;;;;;;10.55;75.14;98361.81;4917187;29;20059;-80
2023/03/25 01:03:08;;;;;;;3.55;1.38;;;;;;;10.55;74.79;98383.66;4934149;29;20099;-80
2023/03/25 01:05:35;;;;;;;4.95;1.75;;;;;;;10.58;74.85;98373.88;4934030;29;20052;-80
2023/03/25 01:08:01;;;;;;;5.25;1.83;;;;;;;10.58;74.65;98368.63;4933685;29;20443;-80
2023/03/25 01:10:27;;;;;;;6.57;1.42;;;;;;;10.58;74.82;98373.88;4933939;29;20107;-80
2023/03/25 01:12:53;;;;;;;3.35;1.02;;;;;;;10.58;74.59;98374.69;4934509;29;20094;-80
2023/03/25 01:15:20;;;;;;;7.95;1.90;;;;;;;10.57;73.73;98378.28;4933577;29;20106;-79
2023/03/25 01:17:46;;;;;;;6.40;1.80;;;;;;;10.59;74.38;98367.66;4933552;29;20699;-80
2023/03/25 01:20:13;;;;;;;5.00;1.90;;;;;;;10.60;74.01;98369.31;4933806;29;20142;-80
2023/03/25 01:22:39;;;;;;;8.23;1.83;;;;;;;10.61;74.26;98361.31;4933945;29;20059;-80
2023/03/25 01:25:06;;;;;;;5.10;1.65;;;;;;;10.64;74.49;98370.75;4933851;29;20462;-80
2023/03/25 01:27:32;;;;;;;5.15;1.48;;;;;;;10.66;74.36;98361.75;4933337;29;20668;-80
2023/03/25 01:29:59;;;;;;;4.10;1.73;;;;;;;10.67;74.49;98360.81;4933669;29;20502;-80
2023/03/25 01:32:27;;;;;;;4.40;1.55;;;;;;;10.69;74.30;98372.06;4933888;29;20059;-80
2023/03/25 01:34:54;;;;;;;5.78;1.98;;;;;;;10.71;74.19;98357.94;4933474;29;20054;-80
2023/03/25 01:37:21;;;;;;;7.18;1.55;;;;;;;10.72;74.17;98365.69;4933399;29;20060;-80
2023/03/25 01:39:47;;;;;;;6.97;1.95;;;;;;;10.71;73.93;98364.03;4933744;29;20060;-80
2023/03/25 01:42:14;;;;;;;5.85;2.30;;;;;;;10.72;73.92;98368.34;4933451;29;20061;-80
2023/03/25 01:44:43;;;;;;;6.35;1.55;;;;;;;10.72;73.02;98359.63;4933511;29;20075;-80
2023/03/25 01:47:09;;;;;;;5.55;1.55;;;;;;;10.74;74.12;98353.28;4933147;29;20146;-80
2023/03/25 01:49:42;;;;;;;6.55;1.95;;;;;;;10.73;73.47;98354.22;4933595;29;20079;-80
2023/03/25 01:52:20;;;;;;;8.65;2.50;;;;;;;10.71;72.16;98355.28;4933646;29;20135;-80
2023/03/25 01:54:49;;;;;;;6.15;1.65;;;;;;;10.74;73.88;98348.00;4933241;29;20138;-79
2023/03/25 01:57:19;;;;;;;4.63;1.83;;;;;;;10.73;72.24;98343.69;4932698;29;20059;-79
2023/03/25 01:59:46;;;;;;;4.45;1.60;;;;;;;10.73;73.44;98341.06;4933443;29;20115;-80
2023/03/25 02:02:16;;;;;;;6.07;1.90;;;;;;;10.75;73.85;98351.47;4932038;29;20079;-80
2023/03/25 02:05:09;;;;;;;5.38;1.95;;;;;;;10.72;71.14;98347.28;4916307;29;20119;-80
2023/03/25 02:07:41;;;;;;;7.47;2.13;;;;;;;10.78;73.46;98333.66;4925222;29;20052;-80
2023/03/25 02:10:10;;;;;;;6.57;1.95;;;;;;;10.77;73.05;98358.28;4933185;29;20055;-80
2023/03/25 02:12:37;;;;;;;6.75;2.80;;;;;;;10.76;73.13;98332.91;4932951;29;20505;-80
2023/03/25 02:15:06;;;;;;;5.22;2.20;;;;;;;10.76;72.98;98338.19;4932959;29;20115;-80
2023/03/25 02:18:00;;;;;;;5.57;1.85;;;;;;;10.73;68.98;98341.06;4932324;29;20485;-80
2023/03/25 02:20:48;;;;;;;10.88;1.90;;;;;;;10.76;71.92;98335.56;4932890;29;20470;-79
2023/03/25 02:23:27;;;;;;;10.35;2.00;;;;;;;10.77;73.06;98346.91;4933259;29;20094;-80
2023/03/25 02:26:11;;;;;;;5.85;1.75;;;;;;;10.76;70.49;98353.16;4933042;29;20047;-80
2023/03/25 02:28:54;;;;;;;4.50;1.38;;;;;;;10.76;70.69;98338.19;4932688;29;20098;-80
2023/03/25 02:31:47;;;;;;;8.52;1.90;;;;;;;10.77;69.94;98345.09;4933118;29;20059;-81
2023/03/25 02:34:55;;;;;;;10.25;2.22;;;;;;;10.79;69.39;98334.47;4932804;29;20150;-80
2023/03/25 02:37:36;;;;;;;10.70;2.35;;;;;;;10.79;70.44;98337.94;4932908;29;20098;-80
2023/03/25 02:40:06;;;;;;;7.47;1.95;;;;;;;10.78;70.55;98338.06;4933054;29;20067;-80
2023/03/25 02:42:44;;;;;;;8.13;2.28;;;;;;;10.78;70.32;98340.69;4933031;29;20059;-80
2023/03/25 02:45:29;;;;;;;6.20;1.73;;;;;;;10.77;69.65;98336.41;4932835;29;20059;-79
2023/03/25 02:48:05;;;;;;;9.00;2.03;;;;;;;10.78;71.16;98323.13;4932867;29;20052;-80
2023/03/25 02:50:44;;;;;;;3.50;1.38;;;;;;;10.79;70.97;98334.47;4931662;29;20052;-79
2023/03/25 02:53:18;;;;;;;5.25;1.70;;;;;;;10.79;69.40;98347.63;4932884;29;20462;-80
2023/03/25 02:55:46;;;;;;;9.45;2.13;;;;;;;10.79;71.83;98330.03;4932199;29;20495;-80
2023/03/25 02:58:17;;;;;;;8.30;2.13;;;;;;;10.78;70.45;98327.53;4932297;29;20466;-80
2023/03/25 03:00:45;;;;;;;7.15;1.70;;;;;;;10.76;71.60;98332.91;4932693;29;20119;-79
2023/03/25 03:03:11;;;;;;;11.35;2.67;;;;;;;10.77;71.89;98316.16;4932587;29;20052;-79
2023/03/25 03:05:43;;;;;;;8.30;1.58;;;;;;;10.76;70.68;98309.22;4932277;29;20620;-80
2023/03/25 03:08:25;;;;;;;7.88;2.00;;;;;;;10.75;68.31;98309.34;4931017;29;20118;-79
2023/03/25 03:13:42;;;;;;;7.00;1.83;;;;;;;10.77;70.12;98300.38;5199985;23;20063;-78
2023/03/25 03:16:34;;;;;;;6.25;1.90;;;;;;;10.75;67.47;98290.94;4952126;28;20106;-79
2023/03/25 03:19:04;;;;;;;9.50;2.00;;;;;;;10.76;69.65;98303.97;4935724;28;20085;-79
2023/03/25 03:21:50;;;;;;;6.82;1.90;;;;;;;10.72;67.56;98307.81;4952254;29;20142;-79
2023/03/25 03:24:37;;;;;;;10.25;2.08;;;;;;;10.73;69.99;98319.19;4952298;29;20067;-80
2023/03/25 03:27:32;;;;;;;9.32;2.75;;;;;;;10.69;66.17;98302.78;4950779;29;20051;-79
2023/03/25 03:30:39;;;;;;;9.57;1.67;;;;;;;10.71;66.57;98310.56;4953839;28;20066;-79
2023/03/25 03:33:35;;;;;;;7.53;1.63;;;;;;;10.72;66.62;98286.75;4955664;29;20059;-80
2023/03/25 03:36:14;;;;;;;5.20;1.80;;;;;;;10.73;67.31;98292.88;4954132;28;20582;-78
2023/03/25 03:38:51;;;;;;;5.63;1.55;;;;;;;10.74;68.72;98300.63;4955801;29;20134;-79
2023/03/25 03:41:22;;;;;;;6.43;1.67;;;;;;;10.74;68.43;98308.53;4955393;29;20055;-80
2023/03/25 03:43:52;;;;;;;5.75;1.45;;;;;;;10.76;69.73;98298.69;4955719;29;20074;-79
2023/03/25 03:46:27;;;;;;;7.63;1.70;;;;;;;10.77;69.46;98295.09;4955110;28;20067;-79
2023/03/25 03:48:57;;;;;;;5.13;1.27;;;;;;;10.78;69.75;98306.47;4955416;29;20662;-79
2023/03/25 03:51:32;;;;;;;8.50;1.15;;;;;;;10.79;69.72;98306.34;4955277;28;20162;-79
2023/03/25 03:54:05;;;;;;;5.75;1.80;;;;;;;10.79;69.90;98306.34;4955301;29;20055;-79
2023/03/25 03:56:45;;;;;;;8.27;1.58;;;;;;;10.79;68.99;98306.34;4952035;29;20055;-79
2023/03/25 03:59:23;;;;;;;5.45;1.95;;;;;;;10.79;69.42;98308.13;4954093;29;20382;-79
2023/03/25 04:01:54;;;;;;;6.45;1.77;;;;;;;10.79;69.33;98309.00;4938021;29;20154;-78
2023/03/25 04:04:25;;;;;;;5.40;1.90;;;;;;;10.78;69.68;98307.31;4955324;29;20397;-79
2023/03/25 04:07:14;;;;;;;4.15;1.58;;;;;;;10.75;67.61;98304.09;4954773;28;20066;-80
2023/03/25 04:09:55;;;;;;;5.57;1.50;;;;;;;10.75;68.27;98298.81;4955214;28;20289;-80
2023/03/25 04:12:28;;;;;;;5.85;1.90;;;;;;;10.76;69.57;98303.16;4954904;29;20432;-79
2023/03/25 04:14:55;;;;;;;5.93;1.92;;;;;;;10.76;70.50;98303.16;4954819;29;20143;-79
2023/03/25 04:17:23;;;;;;;5.78;1.63;;;;;;;10.74;71.37;98298.00;4937523;29;20480;-79
2023/03/25 04:19:52;;;;;;;4.60;1.60;;;;;;;10.73;71.44;98306.84;4937926;29;20051;-79
2023/03/25 04:22:20;;;;;;;6.80;1.60;;;;;;;10.69;71.51;98311.53;4955144;28;20134;-79
2023/03/25 04:24:48;;;;;;;5.60;1.65;;;;;;;10.66;71.38;98324.09;4953595;28;20142;-79
2023/03/25 04:27:16;;;;;;;10.27;2.03;;;;;;;10.60;71.60;98303.53;4954614;29;20047;-79
2023/03/25 04:29:46;;;;;;;5.65;1.73;;;;;;;10.56;71.86;98302.94;4954616;29;20055;-79
2023/03/25 04:32:14;;;;;;;5.47;2.00;;;;;;;10.52;72.00;98312.91;4954428;29;20508;-79
2023/03/25 04:34:41;;;;;;;8.18;2.40;;;;;;;10.47;72.03;98314.22;4953339;29;20147;-79
2023/03/25 04:37:07;;;;;;;9.13;2.15;;;;;;;10.42;72.26;98299.59;4953239;29;20101;-79
2023/03/25 04:39:34;;;;;;;6.03;2.00;;;;;;;10.40;72.71;98298.88;4954868;29;20098;-79
2023/03/25 04:42:02;;;;;;;10.15;2.17;;;;;;;10.37;72.45;98298.28;4953815;28;20060;-80
2023/03/25 04:44:32;;;;;;;5.43;1.80;;;;;;;10.35;72.60;98305.50;4954202;29;20504;-79
2023/03/25 04:47:01;;;;;;;6.43;1.90;;;;;;;10.34;72.73;98309.06;4954214;29;20512;-79
2023/03/25 04:49:28;;;;;;;10.63;2.85;;;;;;;10.33;72.44;98320.53;4954422;29;20134;-80
2023/03/25 04:51:55;;;;;;;5.97;2.03;;;;;;;10.33;72.88;98312.66;4954314;29;20070;-79
2023/03/25 04:54:22;;;;;;;6.07;2.00;;;;;;;10.32;72.93;98319.69;4954217;29;20054;-80
2023/03/25 04:56:50;;;;;;;6.88;2.10;;;;;;;10.34;72.92;98309.06;4953805;29;20066;-80
2023/03/25 04:59:18;;;;;;;6.03;2.15;;;;;;;10.34;72.94;98309.91;4952830;29;20070;-80
2023/03/25 05:01:46;;;;;;;4.20;1.65;;;;;;;10.33;72.11;98307.38;4954097;29;20114;-80
2023/03/25 05:04:16;;;;;;;4.10;1.90;;;;;;;10.34;72.42;98296.75;4952720;29;20146;-80
2023/03/25 05:06:49;;;;;;;6.57;1.75;;;;;;;10.33;71.84;98310.03;4953806;29;20066;-80
2023/03/25 05:09:18;;;;;;;5.28;1.80;;;;;;;10.29;72.32;98307.63;4953888;28;20416;-80
2023/03/25 05:11:45;;;;;;;5.55;2.08;;;;;;;10.27;72.45;98312.19;4953948;29;20059;-79
2023/03/25 05:14:14;;;;;;;6.35;1.92;;;;;;;10.20;72.85;98297.84;4953736;28;20051;-79
2023/03/25 05:16:42;;;;;;;5.78;1.92;;;;;;;10.13;73.38;98310.63;4952327;28;20149;-78
2023/03/25 05:19:09;;;;;;;5.70;1.95;;;;;;;10.10;73.49;98310.06;4953837;28;20452;-80
2023/03/25 05:21:38;;;;;;;5.38;2.10;;;;;;;10.01;73.60;98307.19;4953565;28;20059;-78
2023/03/25 05:24:09;;;;;;;4.43;1.65;;;;;;;9.96;74.04;98309.34;4953571;28;20055;-79
2023/03/25 05:26:38;;;;;;;4.22;2.00;;;;;;;9.93;74.21;98303.47;4953606;29;20479;-79
2023/03/25 05:29:14;;;;;;;7.30;2.22;;;;;;;9.87;73.57;98308.25;4953510;29;20055;-79
2023/03/25 05:31:47;;;;;;;9.57;2.17;;;;;;;9.85;74.42;98310.19;4953692;29;20091;-79
2023/03/25 05:34:15;;;;;;;4.47;2.10;;;;;;;9.84;74.90;98308.50;4953462;29;20082;-78
2023/03/25 05:36:42;;;;;;;5.03;2.03;;;;;;;9.82;75.15;98312.19;4953015;29;20055;-79
2023/03/25 05:39:09;;;;;;;5.55;2.40;;;;;;;9.80;75.21;98306.22;4936557;29;20055;-79
2023/03/25 05:41:39;;;;;;;7.43;2.80;;;;;;;9.78;75.23;98304.56;4953513;29;20188;-79
2023/03/25 05:44:08;;;;;;;5.25;2.50;;;;;;;9.74;75.36;98313.63;4953355;29;20062;-79
2023/03/25 05:46:34;;;;;;;9.88;2.60;;;;;;;9.71;75.48;98327.00;4953119;29;20090;-79
2023/03/25 05:49:01;;;;;;;8.10;2.40;;;;;;;9.71;75.64;98321.75;4953088;28;20651;-80
2023/03/25 05:51:37;;;;;;;8.18;2.38;;;;;;;9.72;75.90;98326.03;4953051;29;20059;-79
2023/03/25 05:54:09;;;;;;;5.50;2.00;;;;;;;9.75;75.92;98317.06;4952526;28;20086;-79
2023/03/25 05:56:37;;;;;;;;;;;;;;;9.74;72.67;98332.03;4953438;29;20107;-79
2023/03/25 05:59:03;;;;;;;6.20;1.98;;;;;;;9.82;75.71;98315.66;4952905;29;20357;-79
2023/03/25 06:01:32;;;;;;;8.77;2.25;;;;;;;9.85;76.05;98317.22;4952920;29;20082;-79
2023/03/25 06:04:00;;;;;;;8.27;2.40;;;;;;;9.83;75.37;98321.75;4953133;28;20063;-80
2023/03/25 06:06:29;;;;;;;5.20;1.77;;;;;;;9.87;75.60;98320.56;4952902;28;20077;-79
2023/03/25 06:08:55;;;;;;;6.03;1.90;;;;;;;9.89;75.66;98327.38;4952874;29;20078;-81
2023/03/25 06:11:22;;;;;;;6.20;1.95;;;;;;;9.92;75.43;98347.34;4952905;29;20111;-79
2023/03/25 06:13:49;;;;;;;8.07;2.00;;;;;;;9.96;75.45;98330.38;4952627;29;20122;-78
2023/03/25 06:16:28;;;;;;;7.90;1.83;;;;;;;9.95;73.32;98333.09;4956586;28;20522;-79
2023/03/25 06:18:58;;;;;;;6.47;1.90;;;;;;;10.01;75.41;98332.63;4965926;28;20051;-80
2023/03/25 06:21:31;;;;;;;9.95;2.25;;;;;;;10.00;73.48;98331.81;4960663;28;20510;-80
2023/03/25 06:24:00;;;;;;;6.57;1.77;;;;;;;10.04;74.78;98321.88;4953385;29;20055;-80
2023/03/25 06:26:27;;;;;;;6.07;2.28;;;;;;;10.06;75.18;98330.50;4952600;29;20055;-80
2023/03/25 06:28:54;;;;;;;6.28;2.00;;;;;;;10.11;74.95;98324.84;4952663;29;20062;-80
2023/03/25 06:31:25;;;;;;;6.50;1.73;;;;;;;10.14;75.19;98320.19;4956228;28;20059;-80
2023/03/25 06:33:53;;;;;;;11.43;2.42;;;;;;;10.19;74.84;98326.88;4959052;28;20065;-79
2023/03/25 06:36:20;;;;;;;4.68;1.85;;;;;;;10.23;75.25;98312.53;4962630;28;20051;-79
2023/03/25 06:38:48;;;;;;;11.85;2.13;;;;;;;10.25;74.96;98319.34;4970178;28;20046;-79
2023/03/25 06:41:19;;;;;;;4.35;1.65;;;;;;;10.27;74.66;98322.69;4971414;28;20047;-80
2023/03/25 06:43:46;;;;;;;6.80;2.17;;;;;;;10.30;74.66;98319.84;4954529;28;20137;-78
2023/03/25 06:46:13;;;;;;;10.60;2.67;;;;;;;10.32;74.61;98319.69;4971594;28;20133;-80
2023/03/25 06:48:40;;;;;;;6.70;2.00;;;;;;;10.33;74.18;98325.78;4971726;28;20101;-79
2023/03/25 06:51:07;;;;;;;6.45;2.00;;;;;;;10.36;74.34;98317.66;4962128;28;20075;-80
2023/03/25 06:53:33;;;;;;;5.70;1.85;;;;;;;10.36;74.34;98326.38;4960278;28;20057;-80
2023/03/25 06:56:00;;;;;;;8.73;2.28;;;;;;;10.38;74.25;98315.75;4952262;29;20047;-80
2023/03/25 06:58:33;;;;;;;7.30;2.15;;;;;;;10.39;73.98;98328.78;4952412;28;20047;-79
2023/03/25 07:01:05;;;;;;;5.97;1.88;;;;;;;10.45;74.31;98342.44;4956072;28;20553;-80
2023/03/25 07:03:37;;;;;;;5.68;1.98;;;;;;;10.48;74.15;98329.88;4971872;28;20051;-78
2023/03/25 07:06:05;;;;;;;5.78;1.60;;;;;;;10.51;74.10;98334.88;4974875;28;20113;-80
2023/03/25 07:08:32;;;;;;;8.50;2.05;;;;;;;10.53;73.90;98340.88;4975691;28;20059;-80
2023/03/25 07:11:04;;;;;;;10.00;2.25;;;;;;;10.55;73.53;98327.59;4974363;28;20129;-80
2023/03/25 07:13:31;;;;;;;3.90;1.45;;;;;;;10.55;73.41;98327.59;4975474;28;20105;-80
2023/03/25 07:15:58;;;;;;;7.45;1.73;;;;;;;10.58;73.10;98353.66;4975463;28;20550;-79
2023/03/25 07:18:25;;;;;;;8.27;2.08;;;;;;;10.58;73.09;98329.16;4975232;28;20102;-80
2023/03/25 07:20:52;;;;;;;5.85;2.03;;;;;;;10.58;72.97;98322.06;4975127;28;20395;-79
2023/03/25 07:23:19;;;;;;;6.47;1.75;;;;;;;10.58;73.03;98334.41;4975504;28;20462;-79
2023/03/25 07:25:46;;;;;;;3.20;1.42;;;;;;;10.55;71.96;98323.16;4975154;28;20080;-80
2023/03/25 07:28:13;;;;;;;6.35;1.92;;;;;;;10.58;72.43;98332.59;4975092;28;20077;-80
2023/03/25 07:30:39;;;;;;;4.75;1.60;;;;;;;10.59;72.85;98329.03;4975406;28;20066;-80
2023/03/25 07:33:06;;;;;;;4.75;1.73;;;;;;;10.59;72.70;98336.06;4974945;28;20069;-81
2023/03/25 07:35:32;;;;;;;6.05;1.77;;;;;;;10.61;72.78;98347.31;4974777;28;20475;-80
2023/03/25 07:37:59;;;;;;;7.03;1.85;;;;;;;10.62;73.04;98330.56;4974927;28;20502;-80
2023/03/25 07:40:26;;;;;;;7.72;1.83;;;;;;;10.63;72.60;98337.50;4975054;28;20406;-81
2023/03/25 07:42:53;;;;;;;5.82;1.70;;;;;;;10.64;72.03;98352.31;4975026;28;20050;-79
2023/03/25 07:45:19;;;;;;;7.57;1.67;;;;;;;10.69;72.87;98342.25;4974797;28;20055;-79
2023/03/25 07:47:49;;;;;;;5.97;2.00;;;;;;;10.74;72.85;98326.94;4973468;28;20051;-81
2023/03/25 07:50:17;;;;;;;10.57;2.25;;;;;;;10.80;72.74;98333.50;4971408;28;20396;-79
2023/03/25 07:52:44;;;;;;;6.65;2.22;;;;;;;10.88;73.23;98325.00;4958153;28;20488;-79
2023/03/25 07:55:11;;;;;;;8.32;2.20;;;;;;;10.93;72.48;98333.34;4959549;28;20168;-79
2023/03/25 07:57:40;;;;;;;7.63;2.03;;;;;;;10.96;71.66;98338.38;4954680;28;20090;-79
2023/03/25 08:00:09;;;;;;;7.07;2.03;;;;;;;11.01;71.79;98341.47;4954821;29;20089;-80
2023/03/25 08:02:36;;;;;;;6.05;2.05;;;;;;;11.04;72.06;98343.84;4955015;29;20102;-78
2023/03/25 08:05:04;;;;;;;9.30;2.47;;;;;;;11.04;70.87;98359.66;4954800;29;20054;-79
2023/03/25 08:07:31;;;;;;;6.10;1.98;;;;;;;11.05;71.42;98345.50;4954482;29;20143;-77
2023/03/25 08:09:58;;;;;;;6.05;2.05;;;;;;;11.04;71.18;98338.59;4955047;29;20094;-79
2023/03/25 08:12:25;;;;;;;7.50;2.05;;;;;;;11.05;71.37;98337.63;4953616;29;20534;-81
2023/03/25 08:14:51;;;;;;;6.65;2.10;;;;;;;11.07;71.54;98340.13;4954816;29;20063;-79
2023/03/25 08:17:18;;;;;;;7.97;2.10;;;;;;;11.05;71.60;98332.34;4953892;28;20047;-79
2023/03/25 08:19:44;;;;;;;6.43;2.40;;;;;;;11.05;70.94;98366.59;4955029;29;20472;-79
2023/03/25 08:22:11;;;;;;;8.38;1.92;;;;;;;11.05;71.42;98350.78;4954854;29;20517;-79
2023/03/25 08:24:38;;;;;;;11.52;2.60;;;;;;;11.08;71.74;98349.69;4954394;29;20043;-79
2023/03/25 08:27:04;;;;;;;9.85;2.90;;;;;;;11.08;71.69;98341.78;4953686;29;20058;-79
2023/03/25 08:29:41;;;;;;;10.10;2.75;;;;;;;11.10;71.71;98357.47;4954053;29;20059;-78
2023/03/25 08:32:08;;;;;;;8.85;2.47;;;;;;;11.13;71.51;98357.19;4954649;29;20098;-79
2023/03/25 08:34:38;;;;;;;9.65;2.17;;;;;;;11.16;71.14;98364.84;4953250;29;20126;-80
2023/03/25 08:37:10;;;;;;;8.55;2.67;;;;;;;11.16;70.32;98384.13;4954546;29;20059;-79
2023/03/25 08:39:38;;;;;;;12.43;2.47;;;;;;;11.16;68.98;98372.75;4955277;29;20051;-80
2023/03/25 08:42:07;;;;;;;9.52;2.45;;;;;;;11.19;69.69;98365.47;4954602;29;20086;-79
2023/03/25 08:44:34;;;;;;;12.93;2.72;;;;;;;11.27;70.76;98350.81;4954605;28;20150;-79
2023/03/25 08:47:01;;;;;;;15.88;2.97;;;;;;;11.31;70.69;98355.69;4954419;29;20403;-80
2023/03/25 08:49:27;;;;;;;11.27;2.40;;;;;;;11.38;70.45;98356.03;4954458;29;20055;-79
2023/03/25 08:51:56;;;;;;;9.07;2.85;;;;;;;11.49;70.93;98349.00;4954472;29;20480;-80
2023/03/25 08:54:27;;;;;;;10.93;2.53;;;;;;;11.56;68.32;98347.53;4954342;29;20056;-79
2023/03/25 08:56:54;;;;;;;9.07;2.67;;;;;;;11.64;70.09;98349.53;4954101;29;20137;-80
2023/03/25 08:59:21;;;;;;;9.73;2.60;;;;;;;11.73;70.91;98354.00;4954367;29;20054;-80
2023/03/25 09:01:47;;;;;;;10.30;2.38;;;;;;;11.79;69.69;98348.25;4954356;29;20055;-80
2023/03/25 09:04:14;;;;;;;11.68;2.58;;;;;;;11.84;68.85;98355.75;4954060;29;20051;-80
2023/03/25 09:06:41;;;;;;;8.23;2.55;;;;;;;11.88;68.51;98351.06;4953785;29;20174;-80
2023/03/25 09:09:28;;;;;;;9.75;2.33;;;;;;;11.90;68.06;98357.88;4954449;29;20054;-80
2023/03/25 09:14:29;;;;;;;10.90;2.40;;;;;;;11.93;68.23;98359.41;4924979;23;20534;-80
2023/03/25 09:16:56;;;;;;;11.00;2.88;;;;;;;11.93;68.21;98362.06;5009836;28;20552;-79
2023/03/25 09:19:22;;;;;;;12.32;2.90;;;;;;;11.89;67.53;98356.19;5011104;28;20058;-79
2023/03/25 09:21:49;;;;;;;8.88;2.30;;;;;;;11.89;68.13;98360.63;4993116;28;20112;-80
2023/03/25 09:24:15;;;;;;;6.72;2.42;;;;;;;11.85;68.01;98358.25;4993019;28;20775;-79
2023/03/25 09:26:41;;;;;;;6.53;2.25;;;;;;;11.82;67.03;98382.22;5010269;28;20077;-79
2023/03/25 09:29:08;;;;;;;12.75;2.38;;;;;;;11.84;67.50;98356.59;5010574;28;20054;-79
2023/03/25 09:31:34;;;;;;;10.20;2.38;;;;;;;11.85;67.22;98352.16;5010658;28;20061;-79
2023/03/25 09:34:01;;;;;;;7.32;2.17;;;;;;;11.85;67.74;98352.16;5010637;28;20057;-79
2023/03/25 09:36:27;;;;;;;11.60;3.05;;;;;;;11.83;67.52;98354.94;5010024;28;20525;-80
2023/03/25 09:38:53;;;;;;;8.23;2.60;;;;;;;11.78;66.57;98367.63;5010176;28;20081;-79
2023/03/25 09:41:22;;;;;;;7.72;2.10;;;;;;;11.73;67.53;98359.28;5010430;28;20112;-80
2023/03/25 09:44:01;;;;;;;12.43;2.40;;;;;;;11.65;64.59;98378.41;5010350;28;20083;-79
2023/03/25 09:46:28;;;;;;;8.07;1.83;;;;;;;11.62;67.15;98375.19;5010058;28;20471;-80
2023/03/25 09:48:56;;;;;;;10.45;2.05;;;;;;;11.60;67.69;98375.31;4992328;28;20056;-79
2023/03/25 09:51:27;;;;;;;6.07;1.90;;;;;;;11.55;66.61;98382.78;4992614;28;20559;-79
2023/03/25 09:54:07;;;;;;;8.90;2.25;;;;;;;11.53;63.62;98390.81;4992753;28;20054;-79
2023/03/25 09:56:36;;;;;;;6.90;2.10;;;;;;;11.53;65.08;98380.25;5008841;28;20089;-80
2023/03/25 09:59:14;;;;;;;5.75;1.73;;;;;;;11.55;66.30;98386.22;5018066;28;20073;-79
2023/03/25 10:02:11;;;;;;;5.30;2.00;;;;;;;11.57;64.95;98399.28;5009948;28;20053;-80
2023/03/25 10:05:02;;;;;;;4.60;1.55;;;;;;;11.57;61.60;98415.94;5010261;28;20420;-79
2023/03/25 10:07:46;;;;;;;6.97;1.95;;;;;;;11.63;63.33;98414.59;5009642;28;20054;-79
2023/03/25 10:10:32;;;;;;;3.58;1.42;;;;;;;11.69;64.32;98393.00;5009870;28;20508;-79
2023/03/25 10:13:50;;;;;;;6.07;2.30;;;;;;;11.79;64.47;98400.97;5007092;28;20564;-79
2023/03/25 10:16:46;;;;;;;11.02;2.20;;;;;;;11.92;64.74;98394.66;4947733;29;20094;-79
2023/03/25 10:19:24;;;;;;;9.50;2.00;;;;;;;12.00;63.84;98418.56;4989498;28;20572;-79
2023/03/25 10:22:11;;;;;;;10.32;2.22;;;;;;;12.11;67.08;98391.28;4989710;28;20093;-79
2023/03/25 10:24:45;;;;;;;9.57;3.03;;;;;;;12.21;68.70;98389.56;4989225;28;20054;-79
2023/03/25 10:27:20;;;;;;;11.30;2.40;;;;;;;12.25;65.89;98398.03;4989167;28;20113;-79
2023/03/25 10:29:52;;;;;;;5.72;2.42;;;;;;;12.30;67.04;98380.00;4989905;28;20054;-79
2023/03/25 10:32:34;;;;;;;8.63;2.50;;;;;;;12.30;64.24;98398.47;4989678;28;20094;-79
2023/03/25 10:35:05;;;;;;;11.23;2.45;;;;;;;12.37;67.30;98406.69;4971533;28;20428;-79
2023/03/25 10:37:35;;;;;;;9.68;1.80;;;;;;;12.41;67.75;98389.63;4987867;28;20109;-79
2023/03/25 10:40:15;;;;;;;6.30;2.20;;;;;;;12.41;63.73;98392.25;4993818;28;20089;-79
2023/03/25 10:43:15;;;;;;;7.95;2.50;;;;;;;12.45;62.52;98380.47;4996223;28;20054;-79
2023/03/25 10:45:44;;;;;;;5.82;1.90;;;;;;;12.55;67.25;98383.16;4995204;28;20054;-79
2023/03/25 10:48:24;;;;;;;7.00;2.17;;;;;;;12.62;67.63;98383.44;4996158;28;20058;-80
2023/03/25 10:51:09;;;;;;;7.18;2.42;;;;;;;12.61;61.57;98392.34;4996132;28;20050;-80
2023/03/25 10:53:36;;;;;;;12.95;2.40;;;;;;;12.66;66.86;98394.56;4996025;28;20104;-79
2023/03/25 10:56:07;;;;;;;5.53;2.00;;;;;;;12.65;65.60;98391.09;4994879;28;20500;-79
2023/03/25 10:58:37;;;;;;;14.95;2.58;;;;;;;12.66;66.05;98381.34;4995600;28;20480;-79
2023/03/25 11:01:16;;;;;;;6.35;2.10;;;;;;;12.66;61.41;98399.84;4995975;28;20424;-79
2023/03/25 11:03:45;;;;;;;12.27;2.15;;;;;;;12.67;65.42;98394.44;4995750;28;20118;-79
2023/03/25 11:06:28;;;;;;;4.80;2.08;;;;;;;12.68;63.54;98395.28;4995046;28;20058;-80
2023/03/25 11:09:33;;;;;;;8.15;2.05;;;;;;;12.72;63.39;98391.41;4996013;28;20116;-79
2023/03/25 11:12:01;;;;;;;10.70;2.50;;;;;;;12.79;66.66;98381.97;4991788;28;20062;-79
2023/03/25 11:14:29;;;;;;;13.90;2.25;;;;;;;12.76;66.03;98393.63;4995100;28;20132;-79
2023/03/25 11:16:59;;;;;;;10.15;2.42;;;;;;;12.74;66.00;98392.09;5016222;28;20170;-79
2023/03/25 11:19:30;;;;;;;11.05;2.80;;;;;;;12.68;65.43;98393.47;5027197;28;20112;-80
2023/03/25 11:22:06;;;;;;;10.50;2.70;;;;;;;12.60;66.49;98388.84;5019453;28;20056;-79
2023/03/25 11:24:39;;;;;;;11.75;2.53;;;;;;;12.54;67.37;98389.41;5035291;28;20057;-80
2023/03/25 11:27:07;;;;;;;10.68;3.00;;;;;;;12.42;67.60;98404.50;5035105;28;20060;-79
2023/03/25 11:29:36;;;;;;;13.10;3.10;;;;;;;12.32;67.96;98393.91;5017660;28;20520;-80
2023/03/25 11:32:11;;;;;;;9.48;2.40;;;;;;;12.19;67.92;98394.13;5035336;28;20123;-79
2023/03/25 11:34:40;;;;;;;11.93;2.25;;;;;;;12.08;67.89;98431.97;5035266;28;20091;-79
2023/03/25 11:37:19;;;;;;;6.90;2.10;;;;;;;11.96;67.94;98402.16;5022969;28;20081;-79
2023/03/25 11:39:54;;;;;;;7.65;2.08;;;;;;;11.88;68.40;98409.06;5015145;28;20078;-80
2023/03/25 11:42:41;;;;;;;9.23;2.42;;;;;;;11.77;68.86;98420.53;5015382;28;20087;-80
2023/03/25 11:45:34;;;;;;;8.38;2.20;;;;;;;11.64;68.93;98441.78;5009070;28;20083;-80
2023/03/25 11:48:10;;;;;;;5.25;1.70;;;;;;;11.52;68.43;98426.03;4996864;28;20064;-80
2023/03/25 11:50:37;;;;;;;5.90;1.48;;;;;;;11.46;70.40;98406.28;4996522;28;20243;-80
2023/03/25 11:53:05;;;;;;;7.40;2.35;;;;;;;11.40;71.26;98408.59;5011327;28;20066;-80
2023/03/25 11:55:40;;;;;;;8.00;1.60;;;;;;;11.40;70.53;98413.88;5011526;28;20058;-80
2023/03/25 11:58:17;;;;;;;8.80;1.60;;;;;;;11.45;70.91;98406.41;4993568;28;20140;-79
2023/03/25 12:00:58;;;;;;;6.78;1.50;;;;;;;11.49;70.41;98405.19;4994003;28;20054;-80